Portada
METAR-TAF:

METAR-TAF

Aeroports :

Tajima, Japó

latitud: 35-31N, longitud: 134-48E, altitud: 210 m

Observació

L'informe es va fer fa 1 hora i 2 minuts, a les 06:00 UTC
Vent 3 kt del Sud/Sud-Est, variant entre Sud-Est i Sud/Sud-Oest
Temperatura 10°C
Humitat 100%
Pressió 1017 hPa
Visibilitat: 3500 m
Escasses núvols a una alçada menor de 100 ft
Núvols disperses a una alçada de 2500 ft
Cel ennuvolat a una alçada de 3500 ft
pluja, boira en bancs

METAR: RJBT 050600Z 16003KT 130V210 3500 -RA BCFG FEW000 SCT025 BKN035 10/10 Q1017

Hora: 16:02 (07:02 UTC)


TAF: manca

Observacions i pronòstics meteorològics de més de 4000 aeroports (METAR i TAF).

Les estacions disponibles són els punts grocs i vermells al mapa.

Posi el ratolí al punt desitjat per veure el nom de l'estació.

Feu clic per veure les observacions i els pronòstics meteorològics.

Per canviar el mapa: feu clic els botons verds amb una creu de color negre per apropar; al botó verd amb un guió per allunyar la imatge; o en les fletxes verdes per a mapes adjacents.


METAR-TAF: